FAI weather

Fairbanks International Airport
Fairbanks, Alaska, United States

Public forecast

Using degrees Fahrenheit for public forecast. Weather courtesy of forecast.io.

METAR (pilot weather report)

Retrieved 2019/09/22 05:53 UTC (53 minutes ago):

PAFA 220553Z VRB04KT 10SM FEW037 BKN047 OVC065 04/02 A2954

TAF (pilot weather forecast)

Retrieved 2019/09/22 06:27 UTC (19 minutes ago):

TAF PAFA 220520Z 2206/2312 VRB04KT P6SM VCSH FEW012 BKN035 OVC050 TEMPO 2206/2209 BKN025 FM221000 VRB03KT P6SM SCT050 BKN080 FM230200 03005KT P6SM FEW150